createdAt,value
2019-03-04T00:00:08.656Z,53.10
2019-03-04T00:02:36.503Z,52.90
2019-03-04T00:05:04.715Z,53.00
2019-03-04T00:07:32.555Z,53.10
2019-03-04T00:10:00.399Z,53.10
2019-03-04T00:12:28.643Z,53.20
2019-03-04T00:14:57.166Z,53.20
2019-03-04T00:17:25.089Z,53.20
2019-03-04T00:19:52.935Z,53.10
2019-03-04T00:22:20.783Z,53.20
2019-03-04T00:24:48.915Z,53.20
2019-03-04T00:27:17.091Z,53.80
2019-03-04T00:29:44.932Z,53.20
2019-03-04T00:32:12.803Z,53.20
2019-03-04T00:34:40.652Z,53.20
2019-03-04T00:37:08.884Z,53.20
2019-03-04T00:39:36.755Z,53.20
2019-03-04T00:42:04.602Z,53.20
2019-03-04T00:44:32.464Z,53.30
2019-03-04T00:47:00.307Z,53.30
2019-03-04T00:49:28.179Z,53.30
2019-03-04T00:51:56.024Z,53.40
2019-03-04T00:54:24.127Z,53.30
2019-03-04T00:56:51.985Z,53.30
2019-03-04T00:59:19.819Z,53.30
2019-03-04T01:01:47.667Z,53.40
2019-03-04T01:04:15.507Z,53.30
2019-03-04T01:06:43.355Z,53.30
2019-03-04T01:09:13.478Z,53.30
2019-03-04T01:11:41.503Z,53.30
2019-03-04T01:14:09.351Z,53.30
2019-03-04T01:16:37.485Z,53.30
2019-03-04T01:19:05.660Z,53.30
2019-03-04T01:21:33.514Z,53.10
2019-03-04T01:24:01.680Z,53.30
2019-03-04T01:26:29.536Z,53.40
2019-03-04T01:28:57.461Z,53.30
2019-03-04T01:31:25.455Z,53.40
2019-03-04T01:33:53.680Z,53.30
2019-03-04T01:36:21.723Z,53.50
2019-03-04T01:38:49.864Z,53.40
2019-03-04T01:41:18.010Z,53.40
2019-03-04T01:43:45.852Z,53.30
2019-03-04T01:46:14.032Z,53.40
2019-03-04T01:48:42.203Z,53.30
2019-03-04T01:51:10.411Z,53.30
2019-03-04T01:53:38.259Z,53.40
2019-03-04T01:56:06.131Z,53.40
2019-03-04T01:58:34.065Z,53.30
2019-03-04T02:01:01.944Z,53.30
2019-03-04T02:03:30.142Z,53.40
2019-03-04T02:05:58.008Z,53.30
2019-03-04T02:08:25.851Z,53.50
2019-03-04T02:10:53.720Z,53.50
2019-03-04T02:13:21.564Z,53.50
2019-03-04T02:15:49.799Z,53.50
2019-03-04T02:18:17.639Z,53.60
2019-03-04T02:20:46.383Z,53.60
2019-03-04T02:23:14.232Z,53.60
2019-03-04T02:26:20.028Z,53.60
2019-03-04T02:28:48.047Z,53.50
2019-03-04T02:31:16.276Z,53.60
2019-03-04T02:33:44.119Z,53.60
2019-03-04T02:36:11.994Z,53.60
2019-03-04T02:38:39.836Z,53.60
2019-03-04T02:41:08.047Z,53.60
2019-03-04T02:43:36.240Z,53.00
2019-03-04T02:46:04.125Z,53.60
2019-03-04T02:48:32.040Z,53.60
2019-03-04T02:51:00.333Z,53.50
2019-03-04T02:53:28.256Z,53.60
2019-03-04T02:55:56.147Z,53.60
2019-03-04T02:58:24.340Z,53.70
2019-03-04T03:00:52.255Z,53.70
2019-03-04T03:03:20.484Z,53.70
2019-03-04T03:05:48.339Z,53.70
2019-03-04T03:08:16.185Z,53.60
2019-03-04T03:10:44.028Z,53.70
2019-03-04T03:13:11.898Z,53.70
2019-03-04T03:15:39.739Z,53.60
2019-03-04T03:18:07.778Z,53.60
2019-03-04T03:20:35.614Z,53.70
2019-03-04T03:23:03.477Z,53.50
2019-03-04T03:25:31.352Z,53.80
2019-03-04T03:27:59.302Z,54.30
2019-03-04T03:30:27.142Z,53.80
2019-03-04T03:32:55.008Z,53.70
2019-03-04T03:35:22.857Z,53.70
2019-03-04T03:37:50.831Z,53.90
2019-03-04T03:40:18.731Z,53.70
2019-03-04T03:42:46.604Z,53.70
2019-03-04T03:45:14.516Z,53.70
2019-03-04T03:47:42.472Z,53.80
2019-03-04T03:50:10.324Z,53.90
2019-03-04T03:52:38.933Z,53.80
2019-03-04T03:55:07.259Z,53.80
2019-03-04T03:57:35.135Z,53.80
2019-03-04T04:00:03.223Z,53.80
2019-03-04T04:02:31.097Z,53.80
2019-03-04T04:04:59.289Z,53.90
2019-03-04T04:07:27.157Z,53.90
2019-03-04T04:09:54.996Z,53.90
2019-03-04T04:12:22.864Z,53.80
2019-03-04T04:14:50.708Z,53.90
2019-03-04T04:17:18.598Z,53.90
2019-03-04T04:19:46.792Z,53.80
2019-03-04T04:22:14.656Z,53.90
2019-03-04T04:24:42.504Z,53.90
2019-03-04T04:27:10.436Z,53.80
2019-03-04T04:29:38.679Z,53.80
2019-03-04T04:32:06.916Z,53.90
2019-03-04T04:34:34.783Z,53.80
2019-03-04T04:37:02.980Z,54.10
2019-03-04T04:39:30.856Z,54.00
2019-03-04T04:41:58.696Z,54.10
2019-03-04T04:44:26.899Z,53.70
2019-03-04T04:46:55.519Z,53.90
2019-03-04T04:49:24.314Z,54.00
2019-03-04T04:51:52.536Z,53.70
2019-03-04T04:54:20.704Z,53.90
2019-03-04T04:56:48.576Z,53.90
2019-03-04T04:59:16.784Z,54.00
2019-03-04T05:01:44.628Z,53.80
2019-03-04T05:04:12.494Z,53.80
2019-03-04T05:06:40.339Z,53.90
2019-03-04T05:09:08.208Z,53.90
2019-03-04T05:11:36.047Z,53.80
2019-03-04T05:14:04.252Z,54.10
2019-03-04T05:16:32.838Z,54.00
2019-03-04T05:19:01.003Z,54.00
2019-03-04T05:21:29.175Z,54.00
2019-03-04T05:23:57.032Z,54.00
2019-03-04T05:26:24.881Z,54.00
2019-03-04T05:28:52.730Z,54.00
2019-03-04T05:31:20.849Z,54.10
2019-03-04T05:33:49.328Z,53.90
2019-03-04T05:36:17.500Z,53.90
2019-03-04T05:38:45.673Z,54.00
2019-03-04T05:41:13.603Z,53.80
2019-03-04T05:43:41.492Z,53.90
2019-03-04T05:46:09.705Z,54.00
2019-03-04T05:48:37.624Z,54.10
2019-03-04T05:51:05.468Z,53.90
2019-03-04T05:53:33.312Z,53.90
2019-03-04T05:56:01.155Z,54.00
2019-03-04T05:58:29.340Z,54.00
2019-03-04T06:01:16.563Z,54.00
2019-03-04T06:03:44.903Z,54.00
2019-03-04T06:06:13.091Z,54.00
2019-03-04T06:08:41.266Z,54.10
2019-03-04T06:11:09.104Z,53.90
2019-03-04T06:13:37.051Z,53.90
2019-03-04T06:16:04.895Z,54.00
2019-03-04T06:18:33.036Z,53.80
2019-03-04T06:21:01.621Z,53.80
2019-03-04T06:23:29.794Z,53.60
2019-03-04T06:25:57.641Z,53.60
2019-03-04T06:28:25.588Z,53.20
2019-03-04T06:30:54.128Z,52.70
2019-03-04T06:33:22.000Z,52.50
2019-03-04T06:35:49.885Z,52.40
2019-03-04T06:38:17.788Z,52.50
2019-03-04T06:40:45.984Z,53.50
2019-03-04T06:43:13.939Z,52.60
2019-03-04T06:45:42.131Z,52.20
2019-03-04T06:48:10.299Z,52.10
2019-03-04T06:50:56.300Z,51.70
2019-03-04T06:53:45.479Z,51.70
2019-03-04T06:56:19.403Z,51.50
2019-03-04T06:58:48.032Z,51.30
2019-03-04T07:01:21.392Z,51.40
2019-03-04T07:03:52.256Z,51.40
2019-03-04T07:06:20.101Z,51.30
2019-03-04T07:09:07.253Z,51.30
2019-03-04T07:11:35.112Z,51.20
2019-03-04T07:14:03.047Z,51.20
2019-03-04T07:16:32.190Z,51.20
2019-03-04T07:19:00.813Z,51.00
2019-03-04T07:21:29.052Z,51.00
2019-03-04T07:23:57.228Z,51.10
2019-03-04T07:26:25.400Z,51.20
2019-03-04T07:28:53.269Z,51.10
2019-03-04T07:31:21.113Z,50.50
2019-03-04T07:33:48.983Z,50.50
2019-03-04T07:36:16.831Z,50.50
2019-03-04T07:38:55.003Z,51.10
2019-03-04T07:41:22.848Z,51.40
2019-03-04T07:43:51.052Z,51.20
2019-03-04T07:46:18.899Z,50.50
2019-03-04T07:48:47.900Z,50.40
2019-03-04T07:51:16.014Z,50.30
2019-03-04T07:53:46.591Z,50.20
2019-03-04T07:56:13.484Z,50.20
2019-03-04T07:58:41.976Z,50.30
2019-03-04T08:01:09.816Z,49.20
2019-03-04T08:03:37.952Z,50.00
2019-03-04T08:06:05.810Z,50.60
2019-03-04T08:08:34.537Z,51.00
2019-03-04T08:11:12.015Z,50.70
2019-03-04T08:13:41.839Z,50.30
2019-03-04T08:16:10.019Z,50.10
2019-03-04T08:18:37.871Z,50.30
2019-03-04T08:21:05.811Z,50.10
2019-03-04T08:23:34.376Z,50.10
2019-03-04T08:26:02.553Z,49.80
2019-03-04T08:28:30.492Z,50.10
2019-03-04T08:30:58.443Z,50.10
2019-03-04T08:33:26.643Z,50.00
2019-03-04T08:35:54.521Z,50.10
2019-03-04T08:38:22.389Z,50.10
2019-03-04T08:40:50.229Z,50.10
2019-03-04T08:43:18.468Z,50.00
2019-03-04T08:45:46.311Z,50.30
2019-03-04T08:48:14.188Z,50.60
2019-03-04T08:50:42.032Z,49.90
2019-03-04T08:53:09.900Z,50.00
2019-03-04T08:55:37.747Z,50.20
2019-03-04T08:58:05.970Z,50.10
2019-03-04T09:00:34.124Z,51.50
2019-03-04T09:03:01.981Z,51.60
2019-03-04T09:05:30.161Z,50.40
2019-03-04T09:07:58.325Z,50.20
2019-03-04T09:10:27.167Z,49.90
2019-03-04T09:12:55.114Z,49.90
2019-03-04T09:15:23.275Z,49.90
2019-03-04T09:17:51.260Z,49.90
2019-03-04T09:20:19.607Z,49.80
2019-03-04T09:22:47.756Z,49.80
2019-03-04T09:25:30.042Z,49.60
2019-03-04T09:27:53.297Z,49.80
2019-03-04T09:30:21.195Z,49.70
2019-03-04T09:32:49.039Z,49.80
2019-03-04T09:35:17.264Z,49.70
2019-03-04T09:37:45.112Z,49.80
2019-03-04T09:40:13.748Z,49.70
2019-03-04T09:42:42.175Z,49.80
2019-03-04T09:45:10.458Z,50.40
2019-03-04T09:47:38.303Z,50.20
2019-03-04T09:50:07.164Z,50.60
2019-03-04T09:52:35.004Z,50.70
2019-03-04T09:55:02.867Z,50.70
2019-03-04T09:57:30.715Z,50.70
2019-03-04T09:59:58.564Z,50.80
2019-03-04T10:02:36.088Z,50.90
2019-03-04T10:05:16.883Z,51.00
2019-03-04T10:08:10.108Z,50.80
2019-03-04T10:11:00.256Z,50.80
2019-03-04T10:13:49.835Z,50.80
2019-03-04T10:16:43.428Z,51.10
2019-03-04T10:19:36.347Z,50.90
2019-03-04T10:22:22.404Z,50.90
2019-03-04T10:25:22.004Z,52.20
2019-03-04T10:28:11.943Z,52.60
2019-03-04T10:30:59.072Z,51.90
2019-03-04T10:33:52.424Z,51.10
2019-03-04T10:36:37.080Z,51.50
2019-03-04T10:39:22.414Z,51.30
2019-03-04T10:42:15.804Z,51.10
2019-03-04T10:45:02.948Z,50.90
2019-03-04T10:47:30.791Z,51.00
2019-03-04T10:49:58.685Z,51.10
2019-03-04T10:52:26.605Z,50.80
2019-03-04T10:54:54.479Z,50.80
2019-03-04T10:57:22.331Z,50.70
2019-03-04T10:59:50.195Z,50.70
2019-03-04T11:02:18.048Z,50.80
2019-03-04T11:04:46.205Z,50.90
2019-03-04T11:07:14.044Z,50.80
2019-03-04T11:09:41.915Z,50.60
2019-03-04T11:12:10.107Z,50.70
2019-03-04T11:14:39.624Z,50.60
2019-03-04T11:17:07.472Z,50.60
2019-03-04T11:19:35.647Z,50.80
2019-03-04T11:22:03.650Z,50.80
2019-03-04T11:24:31.945Z,51.30
2019-03-04T11:27:00.071Z,50.50
2019-03-04T11:29:27.940Z,50.90
2019-03-04T11:31:56.264Z,51.90
2019-03-04T11:34:24.404Z,52.70
2019-03-04T11:36:52.263Z,52.10
2019-03-04T11:39:27.479Z,52.00
2019-03-04T11:41:55.334Z,51.00
2019-03-04T11:44:23.251Z,50.90
2019-03-04T11:46:51.206Z,52.10
2019-03-04T11:49:19.463Z,51.30
2019-03-04T11:51:47.320Z,51.00
2019-03-04T11:54:15.323Z,50.90
2019-03-04T11:56:43.476Z,50.90
2019-03-04T11:59:11.316Z,51.50
2019-03-04T12:01:48.526Z,51.50
2019-03-04T12:04:16.366Z,51.50
2019-03-04T12:06:44.234Z,51.40
2019-03-04T12:09:16.858Z,51.20
2019-03-04T12:11:44.843Z,51.30
2019-03-04T12:14:12.676Z,50.90
2019-03-04T12:16:40.845Z,51.00
2019-03-04T12:19:08.771Z,51.40
2019-03-04T12:21:36.655Z,51.10
2019-03-04T12:24:04.668Z,51.10
2019-03-04T12:26:32.541Z,50.90
2019-03-04T12:29:00.693Z,50.80
2019-03-04T12:31:32.724Z,50.80
2019-03-04T12:34:00.579Z,50.80
2019-03-04T12:36:28.787Z,50.90
2019-03-04T12:38:56.640Z,50.80
2019-03-04T12:41:24.508Z,51.20
2019-03-04T12:43:52.717Z,51.20
2019-03-04T12:46:20.612Z,51.20
2019-03-04T12:48:48.732Z,52.00
2019-03-04T12:51:23.041Z,51.00
2019-03-04T12:53:46.567Z,51.20
2019-03-04T12:56:14.435Z,51.20
2019-03-04T12:58:42.608Z,51.40
2019-03-04T13:01:10.485Z,52.00
2019-03-04T13:03:38.596Z,51.40
2019-03-04T13:06:06.474Z,51.40
2019-03-04T13:08:34.634Z,51.30
2019-03-04T13:11:02.504Z,51.20
2019-03-04T13:13:30.352Z,51.30
2019-03-04T13:16:00.055Z,51.30
2019-03-04T13:18:27.919Z,51.30
2019-03-04T13:20:56.420Z,51.30
2019-03-04T13:23:24.599Z,51.20
2019-03-04T13:25:52.767Z,51.10
2019-03-04T13:28:20.612Z,51.20
2019-03-04T13:30:49.115Z,51.10
2019-03-04T13:33:17.123Z,51.10
2019-03-04T13:35:44.989Z,51.30
2019-03-04T13:38:12.855Z,51.30
2019-03-04T13:40:41.008Z,52.00
2019-03-04T13:43:08.981Z,51.20
2019-03-04T13:45:36.824Z,50.90
2019-03-04T13:48:04.995Z,50.00
2019-03-04T13:50:33.172Z,51.50
2019-03-04T13:53:01.043Z,50.30
2019-03-04T13:55:28.883Z,49.70
2019-03-04T13:57:56.751Z,50.00
2019-03-04T14:00:24.627Z,50.30
2019-03-04T14:02:52.934Z,50.00
2019-03-04T14:05:20.793Z,49.90
2019-03-04T14:07:49.057Z,50.50
2019-03-04T14:10:17.499Z,50.80
2019-03-04T14:12:45.729Z,51.30
2019-03-04T14:15:17.938Z,50.60
2019-03-04T14:17:45.891Z,50.60
2019-03-04T14:20:13.739Z,50.50
2019-03-04T14:22:41.587Z,50.50
2019-03-04T14:25:09.700Z,50.50
2019-03-04T14:27:37.552Z,50.30
2019-03-04T14:30:06.351Z,50.30
2019-03-04T14:32:34.207Z,50.30
2019-03-04T14:35:02.047Z,50.50
2019-03-04T14:37:29.899Z,50.90
2019-03-04T14:39:57.748Z,51.00
2019-03-04T14:42:25.592Z,50.90
2019-03-04T14:44:53.512Z,50.80
2019-03-04T14:47:21.362Z,51.40
2019-03-04T14:49:49.203Z,51.30
2019-03-04T14:52:17.424Z,50.50
2019-03-04T14:54:45.277Z,50.90
2019-03-04T14:57:13.122Z,50.60
2019-03-04T14:59:40.965Z,50.50
2019-03-04T15:02:08.816Z,50.50
2019-03-04T15:04:36.652Z,51.50
2019-03-04T15:07:04.812Z,52.20
2019-03-04T15:09:32.647Z,51.30
2019-03-04T15:12:00.491Z,50.80
2019-03-04T15:14:28.333Z,50.80
2019-03-04T15:17:02.927Z,50.70
2019-03-04T15:19:26.080Z,50.70
2019-03-04T15:21:53.927Z,50.60
2019-03-04T15:24:21.775Z,50.70
2019-03-04T15:26:49.995Z,50.70
2019-03-04T15:29:17.836Z,50.60
2019-03-04T15:31:46.048Z,50.60
2019-03-04T15:34:13.940Z,50.70
2019-03-04T15:36:41.784Z,50.70
2019-03-04T15:39:23.030Z,50.80
2019-03-04T15:41:46.148Z,50.60
2019-03-04T15:44:14.001Z,50.60
2019-03-04T15:46:41.849Z,50.80
2019-03-04T15:49:09.702Z,51.30
2019-03-04T15:51:37.872Z,50.80
2019-03-04T15:54:06.092Z,50.90
2019-03-04T15:56:35.478Z,50.60
2019-03-04T15:59:03.579Z,50.50
2019-03-04T16:01:31.420Z,50.50
2019-03-04T16:03:59.267Z,50.50
2019-03-04T16:06:27.116Z,50.40
2019-03-04T16:08:55.289Z,51.10
2019-03-04T16:11:23.127Z,50.60
2019-03-04T16:13:54.133Z,50.50
2019-03-04T16:16:20.535Z,50.70
2019-03-04T16:18:48.383Z,50.70
2019-03-04T16:21:16.271Z,50.80
2019-03-04T16:23:44.119Z,51.20
2019-03-04T16:26:12.766Z,50.80
2019-03-04T16:28:41.286Z,51.20
2019-03-04T16:31:09.133Z,51.00
2019-03-04T16:33:39.408Z,51.00
2019-03-04T16:36:07.204Z,50.90
2019-03-04T16:38:35.046Z,50.90
2019-03-04T16:41:02.908Z,50.90
2019-03-04T16:43:31.163Z,51.40
2019-03-04T16:45:59.327Z,50.80
2019-03-04T16:48:27.227Z,50.70
2019-03-04T16:50:55.074Z,50.70
2019-03-04T16:53:23.204Z,50.80
2019-03-04T16:55:51.043Z,50.70
2019-03-04T16:58:18.916Z,50.90
2019-03-04T17:00:46.987Z,50.70
2019-03-04T17:03:14.875Z,50.60
2019-03-04T17:05:43.176Z,50.60
2019-03-04T17:08:11.048Z,50.60
2019-03-04T17:10:38.971Z,50.60
2019-03-04T17:13:06.811Z,50.70
2019-03-04T17:15:34.659Z,50.80
2019-03-04T17:18:02.820Z,50.60
2019-03-04T17:20:30.980Z,50.80
2019-03-04T17:22:58.899Z,50.70
2019-03-04T17:25:27.455Z,50.80
2019-03-04T17:27:55.605Z,50.80
2019-03-04T17:30:23.857Z,50.70
2019-03-04T17:32:51.815Z,50.70
2019-03-04T17:35:20.189Z,50.80
2019-03-04T17:37:48.035Z,50.80
2019-03-04T17:40:16.495Z,50.60
2019-03-04T17:42:44.339Z,50.60
2019-03-04T17:45:13.233Z,50.60
2019-03-04T17:47:41.072Z,50.60
2019-03-04T17:50:09.940Z,50.60
2019-03-04T17:52:38.160Z,50.70
2019-03-04T17:55:06.595Z,50.50
2019-03-04T17:57:34.439Z,50.60
2019-03-04T18:00:02.447Z,50.60
2019-03-04T18:02:30.976Z,50.50
2019-03-04T18:04:59.128Z,50.60
2019-03-04T18:07:27.019Z,50.50
2019-03-04T18:09:54.867Z,50.50
2019-03-04T18:12:23.059Z,50.50
2019-03-04T18:14:50.980Z,50.40
2019-03-04T18:17:18.823Z,50.40
2019-03-04T18:19:46.775Z,50.40
2019-03-04T18:22:14.618Z,50.40
2019-03-04T18:24:42.503Z,50.40
2019-03-04T18:27:15.704Z,50.50
2019-03-04T18:29:53.404Z,50.30
2019-03-04T18:32:39.143Z,50.30
2019-03-04T18:35:29.043Z,50.30
2019-03-04T18:38:07.595Z,50.90
2019-03-04T18:40:51.267Z,50.80
2019-03-04T18:43:22.928Z,50.50
2019-03-04T18:46:09.310Z,50.60
2019-03-04T18:48:56.095Z,50.70
2019-03-04T18:51:24.037Z,50.70
2019-03-04T18:53:53.291Z,51.00
2019-03-04T18:56:22.352Z,50.50
2019-03-04T18:58:50.302Z,50.40
2019-03-04T19:01:18.175Z,51.00
2019-03-04T19:03:46.020Z,50.50
2019-03-04T19:06:14.168Z,50.80
2019-03-04T19:08:42.015Z,50.60
2019-03-04T19:11:10.232Z,50.60
2019-03-04T19:13:38.076Z,50.60
2019-03-04T19:16:05.955Z,50.40
2019-03-04T19:18:33.876Z,50.60
2019-03-04T19:21:01.749Z,50.30
2019-03-04T19:23:30.240Z,50.30
2019-03-04T19:25:58.952Z,50.30
2019-03-04T19:28:26.890Z,50.60
2019-03-04T19:30:54.838Z,50.70
2019-03-04T19:33:23.364Z,50.30
2019-03-04T19:35:51.235Z,50.70
2019-03-04T19:38:19.094Z,50.10
2019-03-04T19:40:46.967Z,50.10
2019-03-04T19:43:14.812Z,50.90
2019-03-04T19:45:43.008Z,50.30
2019-03-04T19:48:10.869Z,50.60
2019-03-04T19:50:38.837Z,50.40
2019-03-04T19:53:06.973Z,50.40
2019-03-04T19:55:34.876Z,50.40
2019-03-04T19:58:02.719Z,50.30
2019-03-04T20:00:31.676Z,50.40
2019-03-04T20:02:59.531Z,50.50
2019-03-04T20:05:27.589Z,50.40
2019-03-04T20:07:55.439Z,50.30
2019-03-04T20:10:23.311Z,50.30
2019-03-04T20:12:51.477Z,50.30
2019-03-04T20:15:20.329Z,50.80
2019-03-04T20:17:48.172Z,50.20
2019-03-04T20:20:16.019Z,50.30
2019-03-04T20:22:43.892Z,51.00
2019-03-04T20:25:12.529Z,50.50
2019-03-04T20:27:40.829Z,50.40
2019-03-04T20:30:09.408Z,50.40
2019-03-04T20:32:37.282Z,50.20
2019-03-04T20:35:05.839Z,50.30
2019-03-04T20:37:34.724Z,50.20
2019-03-04T20:40:03.324Z,50.30
2019-03-04T20:42:31.421Z,50.20
2019-03-04T20:44:59.584Z,50.20
2019-03-04T20:47:27.456Z,50.00
2019-03-04T20:49:55.617Z,50.00
2019-03-04T20:52:23.787Z,50.10
2019-03-04T20:54:51.635Z,50.10
2019-03-04T20:57:19.624Z,50.10
2019-03-04T20:59:47.579Z,50.30
2019-03-04T21:02:15.891Z,50.30
2019-03-04T21:04:43.767Z,50.50
2019-03-04T21:07:11.645Z,50.50
2019-03-04T21:09:39.487Z,50.60
2019-03-04T21:12:07.379Z,50.50
2019-03-04T21:14:35.524Z,50.50
2019-03-04T21:17:03.401Z,50.10
2019-03-04T21:19:31.544Z,50.40
2019-03-04T21:22:01.614Z,50.30
2019-03-04T21:24:29.844Z,50.20
2019-03-04T21:26:58.067Z,50.50
2019-03-04T21:30:00.593Z,50.30
2019-03-04T21:32:53.839Z,50.20
2019-03-04T21:35:47.397Z,50.20
2019-03-04T21:38:15.447Z,50.60
2019-03-04T21:40:47.064Z,51.40
2019-03-04T21:43:17.680Z,50.50
2019-03-04T21:46:03.611Z,50.40
2019-03-04T21:48:37.324Z,50.20
2019-03-04T21:51:17.901Z,50.10
2019-03-04T21:53:47.035Z,50.10
2019-03-04T21:56:29.810Z,50.10
2019-03-04T21:58:57.644Z,50.00
2019-03-04T22:01:31.187Z,50.10
2019-03-04T22:03:59.588Z,50.10
2019-03-04T22:06:27.463Z,50.20
2019-03-04T22:08:55.311Z,50.10
2019-03-04T22:11:23.160Z,49.90
2019-03-04T22:13:51.364Z,50.00
2019-03-04T22:16:19.212Z,50.10
2019-03-04T22:18:47.406Z,50.00
2019-03-04T22:21:16.968Z,50.00
2019-03-04T22:23:45.124Z,49.80
2019-03-04T22:26:13.147Z,50.30
2019-03-04T22:28:41.443Z,50.00
2019-03-04T22:31:09.447Z,50.10
2019-03-04T22:33:37.290Z,50.10
2019-03-04T22:36:05.157Z,50.10
2019-03-04T22:38:33.136Z,50.10
2019-03-04T22:41:01.300Z,50.20
2019-03-04T22:43:29.222Z,50.20
2019-03-04T22:45:57.128Z,50.30
2019-03-04T22:48:25.003Z,50.20
2019-03-04T22:50:52.850Z,50.30
2019-03-04T22:53:20.746Z,50.20
2019-03-04T22:55:48.726Z,50.30
2019-03-04T22:58:27.827Z,50.40
2019-03-04T23:01:33.898Z,51.60
2019-03-04T23:04:18.467Z,51.90
2019-03-04T23:06:49.156Z,52.20
2019-03-04T23:09:17.704Z,52.20
2019-03-04T23:11:47.908Z,52.30
2019-03-04T23:14:18.023Z,52.50
2019-03-04T23:16:46.146Z,52.40
2019-03-04T23:19:13.990Z,52.40
2019-03-04T23:21:41.839Z,53.20
2019-03-04T23:24:09.679Z,52.40
2019-03-04T23:26:37.813Z,52.50
2019-03-04T23:29:05.686Z,52.70
2019-03-04T23:31:33.535Z,52.80
2019-03-04T23:34:01.396Z,52.80
2019-03-04T23:36:29.316Z,52.80
2019-03-04T23:38:57.268Z,52.80
2019-03-04T23:41:27.108Z,52.80
2019-03-04T23:43:55.086Z,52.70
2019-03-04T23:46:22.988Z,52.70
2019-03-04T23:48:50.856Z,52.80
2019-03-04T23:51:19.035Z,52.80
2019-03-04T23:53:46.903Z,53.00
2019-03-04T23:56:14.748Z,52.90
2019-03-04T23:58:42.619Z,52.90
